createdAt,value
2017-09-27T14:03:06.113Z,1011.22
2017-09-27T14:03:46.650Z,1011.22
2017-09-27T14:04:27.151Z,1011.21
2017-09-27T14:05:07.840Z,1011.26
2017-09-27T14:05:48.276Z,1011.23
2017-09-27T14:06:28.789Z,1011.24
2017-09-27T14:07:09.393Z,1011.32
2017-09-27T14:07:49.929Z,1011.33
2017-09-27T14:08:30.458Z,1011.32
2017-09-27T14:09:10.971Z,1011.26
2017-09-27T14:09:51.568Z,1011.26
2017-09-27T14:12:09.494Z,1011.14
2017-09-27T14:12:50.009Z,1011.19
2017-09-27T14:13:30.441Z,1011.17
2017-09-27T14:14:10.930Z,1011.15
2017-09-27T14:16:09.116Z,1011.05
2017-09-27T14:16:49.604Z,1011.05
2017-09-27T14:17:30.431Z,1011.02
2017-09-27T14:18:10.934Z,1010.97
2017-09-27T14:18:51.394Z,1010.97
2017-09-27T14:19:31.856Z,1010.91
2017-09-27T14:20:12.368Z,1010.93
2017-09-27T14:20:52.848Z,1010.91
2017-09-27T14:21:33.501Z,1010.9
2017-09-27T14:22:14.185Z,1010.9
2017-09-27T14:22:54.727Z,1010.89
2017-09-27T14:23:35.356Z,1010.9
2017-09-27T14:24:15.883Z,1010.86
2017-09-27T14:24:56.406Z,1010.88
2017-09-27T14:25:36.882Z,1010.88
2017-09-27T14:26:17.723Z,1010.87
2017-09-27T14:26:58.012Z,1010.87
2017-09-27T14:29:16.454Z,1010.92
2017-09-27T14:29:56.892Z,1010.92
2017-09-27T14:30:37.382Z,1010.92
2017-09-27T14:31:18.105Z,1010.88
2017-09-27T14:31:58.562Z,1010.9
2017-09-27T14:32:39.085Z,1010.83
2017-09-27T14:33:19.752Z,1010.83
2017-09-27T14:34:00.148Z,1010.77
2017-09-27T14:34:40.656Z,1010.78
2017-09-27T14:35:21.128Z,1010.74
2017-09-27T14:36:01.772Z,1010.68
2017-09-27T14:36:42.284Z,1010.63
2017-09-27T14:37:22.700Z,1010.67
2017-09-27T14:38:03.302Z,1010.67
2017-09-27T14:38:43.871Z,1010.59
2017-09-27T14:39:24.353Z,1010.58
2017-09-27T14:40:04.929Z,1010.66
2017-09-27T14:40:45.442Z,1010.66
2017-09-27T14:41:25.892Z,1010.61
2017-09-27T14:42:06.362Z,1010.68
2017-09-27T14:42:46.790Z,1010.66
2017-09-27T14:43:27.292Z,1010.64
2017-09-27T14:44:07.993Z,1010.63
2017-09-27T14:44:48.657Z,1010.65
2017-09-27T14:45:29.284Z,1010.67
2017-09-27T14:46:09.900Z,1010.7
2017-09-27T14:46:50.482Z,1010.71
2017-09-27T14:47:31.564Z,1010.66
2017-09-27T14:49:24.206Z,1010.68
2017-09-27T14:50:05.144Z,1010.71
2017-09-27T14:51:57.833Z,1010.66
2017-09-27T14:52:38.191Z,1010.69
2017-09-27T14:53:18.713Z,1010.64
2017-09-27T14:53:59.231Z,1010.66
2017-09-27T14:54:39.666Z,1010.65
2017-09-27T14:55:20.236Z,1010.69
2017-09-27T14:56:00.654Z,1010.68
2017-09-27T14:56:41.254Z,1010.68
2017-09-27T14:57:21.794Z,1010.69
2017-09-27T14:58:02.252Z,1010.68
2017-09-27T14:58:42.757Z,1010.72
2017-09-27T14:59:23.183Z,1010.72
2017-09-27T15:00:03.638Z,1010.77
2017-09-27T15:00:44.149Z,1010.75
2017-09-27T15:01:24.722Z,1010.74
2017-09-27T15:02:05.217Z,1010.74
2017-09-27T15:02:45.709Z,1010.77
2017-09-27T15:03:26.781Z,1010.82
2017-09-27T15:05:25.324Z,1010.97
2017-09-27T15:06:05.707Z,1011
2017-09-27T15:06:46.204Z,1011.05
2017-09-27T15:07:26.671Z,1011.11
2017-09-27T15:08:07.214Z,1011.08
2017-09-27T15:08:47.698Z,1011.11
2017-09-27T15:09:28.257Z,1010.56
2017-09-27T15:10:08.700Z,1011.11
2017-09-27T15:10:49.158Z,1011.14
2017-09-27T15:11:29.649Z,1011.18
2017-09-27T15:12:10.134Z,1011.19
2017-09-27T15:12:50.669Z,1011.21
2017-09-27T15:13:31.179Z,1011.25
2017-09-27T15:14:11.658Z,1011.27
2017-09-27T15:14:52.106Z,1011.25
2017-09-27T15:15:32.596Z,1011.2
2017-09-27T15:16:13.139Z,1011.17
2017-09-27T15:20:24.378Z,1010.99
2017-09-27T15:21:10.996Z,1010.93
2017-09-27T15:21:52.196Z,1010.89
2017-09-27T15:22:32.649Z,1010.87
2017-09-27T15:23:13.080Z,1010.86
2017-09-27T15:23:53.596Z,1010.84
2017-09-27T15:24:34.062Z,1010.81
2017-09-27T15:25:14.443Z,1010.85
2017-09-27T15:25:54.928Z,1010.85
2017-09-27T15:26:35.411Z,1010.85
2017-09-27T15:27:15.885Z,1010.83
2017-09-27T15:29:13.658Z,1010.81
2017-09-27T15:29:54.108Z,1010.82
2017-09-27T15:30:34.595Z,1010.77
2017-09-27T15:31:15.149Z,1010.63
2017-09-27T15:31:55.653Z,1010.5
2017-09-27T15:32:36.170Z,1010.42
2017-09-27T15:33:16.825Z,1010.39
2017-09-27T15:33:57.409Z,1010.39
2017-09-27T15:34:37.908Z,1010.36
2017-09-27T15:35:18.359Z,1010.37
2017-09-27T15:35:58.852Z,1010.36
2017-09-27T15:36:39.332Z,1010.4
2017-09-27T15:37:19.933Z,1010.37
2017-09-27T15:38:00.530Z,1010.36
2017-09-27T15:38:41.018Z,1010.37
2017-09-27T15:39:21.482Z,1010.41
2017-09-27T15:40:02.303Z,1010.41
2017-09-27T15:40:42.911Z,1010.41
2017-09-27T15:41:23.441Z,1010.42
2017-09-27T15:42:03.830Z,1010.41
2017-09-27T15:42:44.307Z,1010.41
2017-09-27T15:43:24.782Z,1010.37
2017-09-27T15:44:05.387Z,1010.39
2017-09-27T15:44:46.044Z,1010.38
2017-09-27T15:45:26.830Z,1010.41
2017-09-27T15:46:07.310Z,1010.36
2017-09-27T15:46:47.830Z,1010.39
2017-09-27T15:47:28.301Z,1010.37
2017-09-27T15:48:08.791Z,1010.37
2017-09-27T15:48:49.970Z,1010.37
2017-09-27T15:49:30.702Z,1010.35
2017-09-27T15:50:11.199Z,1010.32
2017-09-27T15:50:51.790Z,1010.35
2017-09-27T15:51:32.309Z,1010.38
2017-09-27T15:52:12.820Z,1010.4
2017-09-27T15:52:53.313Z,1010.36
2017-09-27T15:53:33.913Z,1010.37
2017-09-27T15:54:14.477Z,1010.38
2017-09-27T15:54:54.988Z,1010.38
2017-09-27T15:55:35.498Z,1010.37
2017-09-27T15:56:15.976Z,1010.39
2017-09-27T15:56:56.447Z,1010.37
2017-09-27T15:57:36.946Z,1010.37
2017-09-27T15:58:17.476Z,1010.37
2017-09-27T15:58:58.017Z,1010.37
2017-09-27T15:59:38.667Z,1010.36
2017-09-27T16:00:19.173Z,1010.34
2017-09-27T16:00:59.726Z,1010.37
2017-09-27T16:01:40.901Z,1010.38
2017-09-27T16:02:21.423Z,1010.38
2017-09-27T16:03:01.924Z,1010.42
2017-09-27T16:03:42.424Z,1010.37
2017-09-27T16:04:22.980Z,1010.37
2017-09-27T16:05:04.454Z,1010.4
2017-09-27T16:05:44.982Z,1010.42
2017-09-27T16:06:25.487Z,1010.38
2017-09-27T16:07:06.022Z,1010.38
2017-09-27T16:07:46.562Z,1010.38
2017-09-27T16:08:27.116Z,1010.4
2017-09-27T16:09:07.600Z,1010.37
2017-09-27T16:09:48.130Z,1010.38
2017-09-27T16:10:28.676Z,1010.38
2017-09-27T16:11:09.203Z,1010.4
2017-09-27T16:11:49.691Z,1010.38
2017-09-27T16:12:30.101Z,1010.36
2017-09-27T16:13:10.614Z,1010.39
2017-09-27T16:13:51.141Z,1010.41
2017-09-27T16:14:31.558Z,1010.37
2017-09-27T16:15:12.087Z,1010.39
2017-09-27T16:17:24.900Z,1010.42
2017-09-27T16:18:05.323Z,1010.42
2017-09-27T16:18:45.813Z,1010.46
2017-09-27T16:19:26.343Z,1010.42
2017-09-27T16:20:06.793Z,1010.41
2017-09-27T16:20:47.240Z,1010.42
2017-09-27T16:21:27.692Z,1010.44
2017-09-27T16:22:08.244Z,1010.42
2017-09-27T16:24:06.019Z,1010.45
2017-09-27T16:24:46.537Z,1010.43
2017-09-27T16:25:27.008Z,1010.46
2017-09-27T16:26:07.525Z,1010.47
2017-09-27T16:26:48.039Z,1010.46
2017-09-27T16:27:28.578Z,1010.48
2017-09-27T16:28:09.097Z,1010.49
2017-09-27T16:28:49.645Z,1010.47
2017-09-27T16:29:30.128Z,1010.48
2017-09-27T16:30:10.654Z,1010.48
2017-09-27T16:30:51.121Z,1010.44
2017-09-27T16:31:31.568Z,1010.47
2017-09-27T16:32:12.067Z,1010.43
2017-09-27T16:32:52.514Z,1010.45
2017-09-27T16:33:32.979Z,1010.44
2017-09-27T16:34:13.468Z,1010.44
2017-09-27T16:34:53.937Z,1010.43
2017-09-27T16:35:34.406Z,1010.43
2017-09-27T16:36:14.807Z,1010.46
2017-09-27T16:38:07.387Z,1010.4
2017-09-27T16:38:48.868Z,1010.37
2017-09-27T16:39:29.257Z,1010.39
2017-09-27T16:40:09.714Z,1010.43
2017-09-27T16:40:50.314Z,1010.42
2017-09-27T16:41:30.800Z,1010.42
2017-09-27T16:42:11.257Z,1010.43
2017-09-27T16:42:51.726Z,1010.42
2017-09-27T16:43:32.195Z,1010.42
2017-09-27T16:44:12.632Z,1010.41
2017-09-27T16:44:53.100Z,1010.41
2017-09-27T16:45:33.601Z,1010.45
2017-09-27T16:46:14.035Z,1010.41
2017-09-27T16:46:54.581Z,1010.42
2017-09-27T16:47:35.048Z,1010.42
2017-09-27T16:48:16.387Z,1010.39
2017-09-27T16:48:57.136Z,1010.43
2017-09-27T16:51:10.402Z,1010.46
2017-09-27T16:51:51.726Z,1010.45
2017-09-27T16:52:32.256Z,1010.46
2017-09-27T16:53:12.777Z,1010.43
2017-09-27T16:53:53.382Z,1010.46
2017-09-27T16:54:34.036Z,1010.45
2017-09-27T16:55:14.652Z,1010.44
2017-09-27T16:55:55.257Z,1010.46
2017-09-27T16:56:35.850Z,1010.44
2017-09-27T16:57:16.285Z,1010.49
2017-09-27T16:57:56.754Z,1010.46
2017-09-27T16:58:37.291Z,1010.47
2017-09-27T16:59:17.717Z,1010.47
2017-09-27T16:59:58.188Z,1010.47
2017-09-27T17:00:38.709Z,1010.45
2017-09-27T17:01:19.166Z,1010.46
2017-09-27T17:01:59.586Z,1010.45
2017-09-27T17:02:40.038Z,1010.44
2017-09-27T17:03:20.648Z,1010.45
2017-09-27T17:05:49.805Z,1010.5
2017-09-27T17:06:30.065Z,1010.48
2017-09-27T17:07:10.524Z,1010.46
2017-09-27T17:07:51.007Z,1010.49
2017-09-27T17:08:31.454Z,1010.5
2017-09-27T17:09:11.967Z,1010.46
2017-09-27T17:09:52.511Z,1010.45
2017-09-27T17:10:32.977Z,1010.47
2017-09-27T17:11:13.429Z,1010.45
2017-09-27T17:11:53.881Z,1010.5
2017-09-27T17:12:34.357Z,1010.48
2017-09-27T17:13:14.849Z,1010.51
2017-09-27T17:13:55.349Z,1010.55
2017-09-27T17:14:35.810Z,1010.52
2017-09-27T17:15:16.309Z,1010.55
2017-09-27T17:15:56.796Z,1010.54
2017-09-27T17:16:37.198Z,1010.59
2017-09-27T17:17:17.698Z,1010.58
2017-09-27T17:17:58.193Z,1010.55
2017-09-27T17:18:38.662Z,1010.58
2017-09-27T17:21:09.165Z,1010.6
2017-09-27T17:21:49.583Z,1010.58
2017-09-27T17:22:30.070Z,1010.61
2017-09-27T17:23:10.524Z,1010.59
2017-09-27T17:23:51.116Z,1010.59
2017-09-27T17:24:31.650Z,1010.6
2017-09-27T17:25:12.215Z,1010.59
2017-09-27T17:25:52.701Z,1010.59
2017-09-27T17:26:33.254Z,1010.6
2017-09-27T17:27:13.826Z,1010.62
2017-09-27T17:27:54.368Z,1010.63
2017-09-27T17:28:34.930Z,1010.61
2017-09-27T17:29:15.406Z,1010.61
2017-09-27T17:29:55.977Z,1010.6
2017-09-27T17:30:36.449Z,1010.61
2017-09-27T17:31:16.993Z,1010.58
2017-09-27T17:31:57.437Z,1010.61
2017-09-27T17:32:37.898Z,1010.61
2017-09-27T17:33:18.375Z,1010.6
2017-09-27T17:33:58.829Z,1010.63
2017-09-27T17:34:39.431Z,1010.62
2017-09-27T17:35:19.874Z,1010.64
2017-09-27T17:36:00.374Z,1010.6
2017-09-27T17:36:40.854Z,1010.57
2017-09-27T17:37:21.390Z,1010.59
2017-09-27T17:38:01.835Z,1010.62
2017-09-27T17:38:42.270Z,1010.58
2017-09-27T17:39:22.757Z,1010.56
2017-09-27T17:40:03.181Z,1010.59
2017-09-27T17:40:43.701Z,1010.62
2017-09-27T17:41:24.179Z,1010.6
2017-09-27T17:42:04.605Z,1010.61
2017-09-27T17:44:02.268Z,1010.58
2017-09-27T17:44:42.690Z,1010.64
2017-09-27T17:45:23.188Z,1010.63
2017-09-27T17:46:03.609Z,1010.69
2017-09-27T17:46:44.066Z,1010.66
2017-09-27T17:47:24.544Z,1010.65
2017-09-27T17:48:04.996Z,1010.69
2017-09-27T17:48:45.501Z,1010.68
2017-09-27T17:49:26.052Z,1010.7
2017-09-27T17:51:43.795Z,1010.7
2017-09-27T17:52:24.272Z,1010.69
2017-09-27T17:53:04.742Z,1010.71
2017-09-27T17:53:45.297Z,1010.71
2017-09-27T17:54:25.719Z,1010.7
2017-09-27T17:55:06.173Z,1010.73
2017-09-27T17:55:46.624Z,1010.73
2017-09-27T17:56:27.066Z,1010.74
2017-09-27T17:57:07.561Z,1010.72
2017-09-27T17:57:48.041Z,1010.72
2017-09-27T17:58:28.550Z,1010.77
2017-09-27T17:59:09.008Z,1010.74
2017-09-27T17:59:49.526Z,1010.75
2017-09-27T18:01:42.100Z,1010.77
2017-09-27T18:02:22.576Z,1010.78
2017-09-27T18:03:03.067Z,1010.79
2017-09-27T18:03:43.551Z,1010.78
2017-09-27T18:04:23.988Z,1010.79
2017-09-27T18:05:04.437Z,1010.82
2017-09-27T18:05:44.905Z,1010.8
2017-09-27T18:06:25.650Z,1010.83
2017-09-27T18:07:06.134Z,1010.78
2017-09-27T18:07:46.556Z,1010.78
2017-09-27T18:09:39.145Z,1010.79
2017-09-27T18:10:19.597Z,1010.78
2017-09-27T18:11:00.209Z,1010.8
2017-09-27T18:11:40.662Z,1010.79
2017-09-27T18:12:21.171Z,1010.81
2017-09-27T18:13:01.670Z,1010.82
2017-09-27T18:13:42.197Z,1010.82
2017-09-27T18:14:22.661Z,1010.82
2017-09-27T18:15:03.091Z,1010.83
2017-09-27T18:15:43.561Z,1010.83
2017-09-27T18:17:36.185Z,1010.84
2017-09-27T18:18:16.587Z,1010.85
2017-09-27T18:18:57.042Z,1010.85
2017-09-27T18:19:37.558Z,1010.86
2017-09-27T18:20:17.952Z,1010.85
2017-09-27T18:20:58.451Z,1010.87
2017-09-27T18:21:38.862Z,1010.87
2017-09-27T18:22:19.304Z,1010.82
2017-09-27T18:22:59.758Z,1010.84
2017-09-27T18:23:40.169Z,1010.86
2017-09-27T18:24:20.627Z,1010.84
2017-09-27T18:25:01.116Z,1010.84
2017-09-27T18:25:41.581Z,1010.84
2017-09-27T18:26:22.061Z,1010.87
2017-09-27T18:27:02.473Z,1010.86
2017-09-27T18:27:42.921Z,1010.88
2017-09-27T18:28:23.363Z,1010.88
2017-09-27T18:29:03.807Z,1010.89
2017-09-27T18:30:56.387Z,1010.94
2017-09-27T18:31:36.893Z,1010.96
2017-09-27T18:32:17.320Z,1010.96
2017-09-27T18:32:57.756Z,1010.96
2017-09-27T18:33:38.223Z,1010.97
2017-09-27T18:34:18.683Z,1010.97
2017-09-27T18:34:59.145Z,1010.98
2017-09-27T18:35:39.601Z,1010.98
2017-09-27T18:36:20.054Z,1010.95
2017-09-27T18:38:17.709Z,1010.94
2017-09-27T18:38:58.274Z,1010.95
2017-09-27T18:39:38.713Z,1010.94
2017-09-27T18:40:19.215Z,1010.94
2017-09-27T18:40:59.701Z,1010.93
2017-09-27T18:43:12.423Z,1010.96
2017-09-27T18:43:52.874Z,1010.96
2017-09-27T18:44:33.347Z,1010.94
2017-09-27T18:45:13.888Z,1010.95
2017-09-27T18:45:54.402Z,1010.94
2017-09-27T18:46:34.804Z,1010.95
2017-09-27T18:47:15.242Z,1010.97
2017-09-27T18:47:55.730Z,1010.92
2017-09-27T18:48:36.187Z,1010.97
2017-09-27T18:49:16.694Z,1010.94
2017-09-27T18:49:57.171Z,1010.95
2017-09-27T18:50:37.618Z,1010.96
2017-09-27T18:51:18.085Z,1010.96
2017-09-27T18:51:58.487Z,1010.92
2017-09-27T18:52:39.733Z,1010.94
2017-09-27T18:53:20.178Z,1010.95
2017-09-27T18:54:00.661Z,1010.97
2017-09-27T18:54:41.141Z,1010.95
2017-09-27T18:55:21.648Z,1010.94
2017-09-27T18:56:02.049Z,1010.95
2017-09-27T18:58:29.991Z,1010.98
2017-09-27T18:59:10.468Z,1011.05
2017-09-27T18:59:50.920Z,1011.03
2017-09-27T19:00:31.398Z,1011.01
2017-09-27T19:01:11.835Z,1010.99
2017-09-27T19:01:52.332Z,1011.03
2017-09-27T19:02:32.754Z,1011.01
2017-09-27T19:03:13.219Z,1010.96
2017-09-27T19:05:31.035Z,1010.99
2017-09-27T19:06:11.544Z,1010.97
2017-09-27T19:06:52.054Z,1011.01
2017-09-27T19:07:32.512Z,1010.99
2017-09-27T19:08:12.956Z,1010.97
2017-09-27T19:08:53.440Z,1010.98
2017-09-27T19:09:33.875Z,1010.94
2017-09-27T19:10:14.419Z,1010.93
2017-09-27T19:10:54.878Z,1010.96
2017-09-27T19:13:07.696Z,1010.97
2017-09-27T19:13:48.074Z,1010.95
2017-09-27T19:14:28.652Z,1010.99
2017-09-27T19:15:09.118Z,1010.96
2017-09-27T19:15:49.575Z,1011.02
2017-09-27T19:16:30.012Z,1011.01
2017-09-27T19:17:10.486Z,1011.03
2017-09-27T19:17:50.937Z,1011.07
2017-09-27T19:18:31.399Z,1011.07
2017-09-27T19:19:11.899Z,1011.07
2017-09-27T19:19:52.312Z,1011.08
2017-09-27T19:20:32.792Z,1011.11
2017-09-27T19:21:13.281Z,1011.1
2017-09-27T19:21:53.762Z,1011.12
2017-09-27T19:22:34.271Z,1011.12
2017-09-27T19:23:14.671Z,1011.12
2017-09-27T19:23:55.056Z,1011.07
2017-09-27T19:24:35.609Z,1011.08
2017-09-27T19:25:16.049Z,1011.09
2017-09-27T19:25:56.504Z,1011.08
2017-09-27T19:26:36.929Z,1011.09
2017-09-27T19:28:34.657Z,1011.12
2017-09-27T19:29:15.103Z,1011.14
2017-09-27T19:29:55.551Z,1011.16
2017-09-27T19:30:36.028Z,1011.16
2017-09-27T19:31:16.475Z,1011.17
2017-09-27T19:31:56.983Z,1011.14
2017-09-27T19:32:37.435Z,1011.15
2017-09-27T19:33:17.896Z,1011.14
2017-09-27T19:33:58.365Z,1011.13
2017-09-27T19:34:38.802Z,1011.14
2017-09-27T19:35:19.322Z,1011.15
2017-09-27T19:35:59.816Z,1011.1
2017-09-27T19:36:40.325Z,1011.12
2017-09-27T19:37:20.834Z,1011.1
2017-09-27T19:38:01.240Z,1011.12
2017-09-27T19:38:41.732Z,1011.14
2017-09-27T19:39:22.174Z,1011.13
2017-09-27T19:40:02.687Z,1011.14
2017-09-27T19:42:20.556Z,1011.13
2017-09-27T19:43:01.049Z,1011.13
2017-09-27T19:43:41.472Z,1011.17
2017-09-27T19:44:21.998Z,1011.2
2017-09-27T19:45:02.457Z,1011.19
2017-09-27T19:45:42.906Z,1011.19
2017-09-27T19:46:23.409Z,1011.21
2017-09-27T19:47:03.958Z,1011.21
2017-09-27T19:47:44.409Z,1011.2
2017-09-27T19:48:24.868Z,1011.21
2017-09-27T19:49:05.398Z,1011.23
2017-09-27T19:49:45.894Z,1011.24
2017-09-27T19:51:38.577Z,1011.26
2017-09-27T19:52:18.931Z,1011.27
2017-09-27T19:52:59.369Z,1011.3
2017-09-27T19:53:39.805Z,1011.28
2017-09-27T19:54:20.278Z,1011.27
2017-09-27T19:55:00.746Z,1011.3
2017-09-27T19:55:41.257Z,1011.25
2017-09-27T19:56:21.736Z,1011.27
2017-09-27T19:57:02.173Z,1011.26
2017-09-27T19:57:42.646Z,1011.22
2017-09-27T19:59:55.424Z,1011.23
2017-09-27T20:00:36.002Z,1011.23
2017-09-27T20:01:16.466Z,1011.22
2017-09-27T20:01:56.965Z,1011.23
2017-09-27T20:02:37.461Z,1011.2
2017-09-27T20:03:17.938Z,1011.26
2017-09-27T20:03:58.440Z,1011.27
2017-09-27T20:04:39.006Z,1011.27
2017-09-27T20:05:19.467Z,1011.27
2017-09-27T20:05:59.958Z,1011.26
2017-09-27T20:06:40.410Z,1011.25
2017-09-27T20:07:20.872Z,1011.27
2017-09-27T20:09:13.453Z,1011.27
2017-09-27T20:09:53.982Z,1011.26
2017-09-27T20:10:34.431Z,1011.25
2017-09-27T20:11:14.918Z,1011.26
2017-09-27T20:11:55.374Z,1011.27
2017-09-27T20:12:35.830Z,1011.25
2017-09-27T20:13:16.281Z,1011.23
2017-09-27T20:13:56.748Z,1011.27
2017-09-27T20:14:37.190Z,1011.22
2017-09-27T20:15:17.644Z,1011.23
2017-09-27T20:15:58.131Z,1011.26
2017-09-27T20:16:38.595Z,1011.26
2017-09-27T20:17:19.108Z,1011.2
2017-09-27T20:17:59.533Z,1011.25
2017-09-27T20:18:40.067Z,1011.24
2017-09-27T20:19:20.530Z,1011.22
2017-09-27T20:21:33.272Z,1011.19
2017-09-27T20:22:13.737Z,1011.18
2017-09-27T20:22:54.274Z,1011.2
2017-09-27T20:23:35.149Z,1011.23
2017-09-27T20:24:15.620Z,1011.21
2017-09-27T20:24:56.047Z,1011.23
2017-09-27T20:25:37.413Z,1011.23
2017-09-27T20:26:17.764Z,1011.23
2017-09-27T20:28:15.387Z,1011.21
2017-09-27T20:28:55.932Z,1011.21
2017-09-27T20:29:36.375Z,1011.2
2017-09-27T20:30:16.872Z,1011.21
2017-09-27T20:30:57.342Z,1011.22
2017-09-27T20:31:37.841Z,1011.24
2017-09-27T20:32:18.284Z,1011.26
2017-09-27T20:32:58.750Z,1011.25
2017-09-27T20:35:11.495Z,1011.26
2017-09-27T20:35:51.941Z,1011.23
2017-09-27T20:36:32.448Z,1011.24
2017-09-27T20:37:12.929Z,1011.23
2017-09-27T20:37:53.539Z,1011.25
2017-09-27T20:38:34.039Z,1011.2
2017-09-27T20:40:26.612Z,1011.22
2017-09-27T20:41:07.076Z,1011.21
2017-09-27T20:41:47.583Z,1011.23
2017-09-27T20:42:28.046Z,1011.23
2017-09-27T20:43:08.498Z,1011.26
2017-09-27T20:43:49.009Z,1011.26
2017-09-27T20:44:29.361Z,1011.22
2017-09-27T20:45:09.859Z,1011.28
2017-09-27T20:45:50.339Z,1011.26
2017-09-27T20:46:30.821Z,1011.23
2017-09-27T20:47:11.288Z,1011.23
2017-09-27T20:47:51.738Z,1011.26
2017-09-27T20:48:32.166Z,1011.24
2017-09-27T20:49:12.666Z,1011.22
2017-09-27T20:49:53.121Z,1011.27
2017-09-27T20:50:33.646Z,1011.23
2017-09-27T20:51:14.123Z,1011.26
2017-09-27T20:51:54.685Z,1011.24
2017-09-27T20:52:35.126Z,1011.31
2017-09-27T20:53:15.578Z,1011.29
2017-09-27T20:53:56.083Z,1011.29
2017-09-27T20:55:53.861Z,1011.29
2017-09-27T20:56:34.224Z,1011.34
2017-09-27T20:57:14.672Z,1011.38
2017-09-27T20:57:55.192Z,1011.38
2017-09-27T20:58:35.684Z,1011.36
2017-09-27T21:00:48.406Z,1011.35
2017-09-27T21:01:28.907Z,1011.31
2017-09-27T21:02:09.378Z,1011.3
2017-09-27T21:02:49.872Z,1011.3
2017-09-27T21:03:30.360Z,1011.33
2017-09-27T21:04:10.883Z,1011.32
2017-09-27T21:04:51.343Z,1011.28
2017-09-27T21:05:31.846Z,1011.3
2017-09-27T21:06:12.332Z,1011.28
2017-09-27T21:06:52.838Z,1011.29
2017-09-27T21:07:33.232Z,1011.27
2017-09-27T21:09:45.975Z,1011.29
2017-09-27T21:10:26.438Z,1011.28
2017-09-27T21:11:06.906Z,1011.34
2017-09-27T21:11:47.397Z,1011.31
2017-09-27T21:12:27.907Z,1011.32
2017-09-27T21:13:08.361Z,1011.32
2017-09-27T21:13:49.730Z,1011.36
2017-09-27T21:14:30.204Z,1011.35
2017-09-27T21:15:10.660Z,1011.31
2017-09-27T21:15:51.141Z,1011.36
2017-09-27T21:18:03.825Z,1011.36
2017-09-27T21:18:44.280Z,1011.36
2017-09-27T21:19:24.793Z,1011.38
2017-09-27T21:20:05.487Z,1011.36
2017-09-27T21:20:45.970Z,1011.37
2017-09-27T21:21:26.468Z,1011.35
2017-09-27T21:22:07.039Z,1011.32
2017-09-27T21:22:47.480Z,1011.37
2017-09-27T21:23:27.944Z,1011.37
2017-09-27T21:24:08.453Z,1011.35
2017-09-27T21:24:49.004Z,1011.36
2017-09-27T21:25:29.458Z,1011.33
2017-09-27T21:26:09.977Z,1011.35
2017-09-27T21:26:50.430Z,1011.34
2017-09-27T21:27:30.964Z,1011.36
2017-09-27T21:28:11.380Z,1011.32
2017-09-27T21:28:51.861Z,1011.33
2017-09-27T21:29:32.332Z,1011.34
2017-09-27T21:30:12.826Z,1011.31
2017-09-27T21:31:08.237Z,1011.33
2017-09-27T21:31:48.706Z,1011.3
2017-09-27T21:32:29.210Z,1011.32
2017-09-27T21:34:26.845Z,1011.28
2017-09-27T21:35:07.282Z,1011.25
2017-09-27T21:35:47.799Z,1011.26
2017-09-27T21:36:28.210Z,1011.25
2017-09-27T21:38:20.789Z,1011.26
2017-09-27T21:39:01.244Z,1011.26
2017-09-27T21:39:41.747Z,1011.26
2017-09-27T21:40:22.150Z,1011.26
2017-09-27T21:41:02.610Z,1011.26
2017-09-27T21:41:43.084Z,1011.25
2017-09-27T21:42:23.540Z,1011.26
2017-09-27T21:44:51.520Z,1011.28
2017-09-27T21:45:32.042Z,1011.28
2017-09-27T21:46:12.466Z,1011.26
2017-09-27T21:46:52.958Z,1011.28
2017-09-27T21:47:33.470Z,1011.25
2017-09-27T21:48:13.846Z,1011.29
2017-09-27T21:48:54.333Z,1011.27
2017-09-27T21:49:34.863Z,1011.27
2017-09-27T21:50:15.323Z,1011.28
2017-09-27T21:50:55.828Z,1011.22
2017-09-27T21:53:23.764Z,1011.22
2017-09-27T21:54:04.265Z,1011.24
2017-09-27T21:54:44.700Z,1011.2
2017-09-27T21:55:25.189Z,1011.19
2017-09-27T21:56:05.643Z,1011.2
2017-09-27T21:56:46.117Z,1011.18
2017-09-27T21:57:26.562Z,1011.21
2017-09-27T21:58:06.991Z,1011.18
2017-09-27T21:58:47.439Z,1011.19
2017-09-27T21:59:28.003Z,1011.17
2017-09-27T22:01:25.570Z,1011.14
2017-09-27T22:02:06.098Z,1011.18
2017-09-27T22:02:46.557Z,1011.14
2017-09-27T22:03:27.059Z,1011.14
2017-09-27T22:05:44.862Z,1011.13
2017-09-27T22:06:25.343Z,1011.14
2017-09-27T22:07:05.778Z,1011.15
2017-09-27T22:07:46.232Z,1011.17
2017-09-27T22:08:26.709Z,1011.13
2017-09-27T22:09:07.161Z,1011.12
2017-09-27T22:09:47.626Z,1011.11
2017-09-27T22:10:28.078Z,1011.09
2017-09-27T22:11:08.562Z,1011.11
2017-09-27T22:11:49.047Z,1011.13
2017-09-27T22:12:29.509Z,1011.11
2017-09-27T22:13:09.976Z,1011.13
2017-09-27T22:13:50.480Z,1011.12
2017-09-27T22:14:31.746Z,1011.12
2017-09-27T22:15:12.231Z,1011.12
2017-09-27T22:15:52.704Z,1011.14
2017-09-27T22:16:33.188Z,1011.16
2017-09-27T22:17:13.724Z,1011.13
2017-09-27T22:17:54.188Z,1011.13
2017-09-27T22:18:34.650Z,1011.12
2017-09-27T22:19:15.113Z,1011.11
2017-09-27T22:19:55.580Z,1011.08
2017-09-27T22:20:36.008Z,1011.12
2017-09-27T22:21:16.505Z,1011.07
2017-09-27T22:21:56.939Z,1011.11
2017-09-27T22:22:37.405Z,1011.05
2017-09-27T22:23:18.851Z,1011.09
2017-09-27T22:23:59.330Z,1011.08
2017-09-27T22:24:39.750Z,1011.07
2017-09-27T22:25:20.229Z,1011.06
2017-09-27T22:26:00.695Z,1011.07
2017-09-27T22:26:41.178Z,1011.13
2017-09-27T22:27:21.626Z,1011.1
2017-09-27T22:28:02.097Z,1011.1
2017-09-27T22:28:42.670Z,1011.11
2017-09-27T22:29:23.115Z,1011.08
2017-09-27T22:30:03.563Z,1011.1
2017-09-27T22:30:44.032Z,1011.07
2017-09-27T22:31:24.485Z,1011.04
2017-09-27T22:32:04.963Z,1011.06
2017-09-27T22:32:45.438Z,1011.06
2017-09-27T22:33:25.871Z,1011.09
2017-09-27T22:34:06.476Z,1011.07
2017-09-27T22:34:46.937Z,1011.05
2017-09-27T22:35:27.377Z,1011.04
2017-09-27T22:36:07.865Z,1011.06
2017-09-27T22:36:48.345Z,1011.05
2017-09-27T22:37:28.832Z,1011.03
2017-09-27T22:38:09.257Z,1011.03
2017-09-27T22:38:49.741Z,1010.99
2017-09-27T22:39:30.239Z,1010.99
2017-09-27T22:40:10.693Z,1010.99
2017-09-27T22:40:51.210Z,1010.98
2017-09-27T22:41:31.664Z,1010.98
2017-09-27T22:42:12.211Z,1010.98
2017-09-27T22:42:52.670Z,1011
2017-09-27T22:43:33.153Z,1011
2017-09-27T22:44:13.642Z,1011
2017-09-27T22:44:54.060Z,1010.98
2017-09-27T22:45:34.590Z,1010.97
2017-09-27T22:46:15.042Z,1010.98
2017-09-27T22:46:55.494Z,1010.97
2017-09-27T22:47:35.945Z,1010.96
2017-09-27T22:48:16.453Z,1010.92
2017-09-27T22:48:56.930Z,1010.93
2017-09-27T22:49:37.337Z,1010.96
2017-09-27T22:50:17.828Z,1010.96
2017-09-27T22:50:58.451Z,1010.95
2017-09-27T22:51:38.896Z,1010.92
2017-09-27T22:52:19.481Z,1010.92
2017-09-27T22:52:59.857Z,1010.92
2017-09-27T22:53:40.328Z,1010.95
2017-09-27T22:54:21.286Z,1010.93
2017-09-27T22:55:01.751Z,1010.96
2017-09-27T22:55:42.260Z,1010.96
2017-09-27T22:56:22.650Z,1010.99
2017-09-27T22:57:03.135Z,1010.99
2017-09-27T22:57:43.595Z,1010.99
2017-09-27T22:58:24.100Z,1010.98
2017-09-27T22:59:04.501Z,1010.99
2017-09-27T22:59:44.965Z,1010.99
2017-09-27T23:00:25.523Z,1011.02
2017-09-27T23:01:05.872Z,1011.01
2017-09-27T23:01:46.332Z,1011.04
2017-09-27T23:02:26.840Z,1011.04
2017-09-27T23:03:07.294Z,1011.04
2017-09-27T23:03:47.719Z,1011.05
2017-09-27T23:04:28.155Z,1011.04
2017-09-27T23:05:08.633Z,1011.02
2017-09-27T23:05:49.081Z,1011.04
2017-09-27T23:06:29.538Z,1011.03
2017-09-27T23:07:10.006Z,1011.01
2017-09-27T23:07:50.452Z,1011.03
2017-09-27T23:08:30.893Z,1011.02
2017-09-27T23:10:58.924Z,1010.99
2017-09-27T23:11:39.393Z,1011.01
2017-09-27T23:12:19.867Z,1011.01
2017-09-27T23:13:00.363Z,1011
2017-09-27T23:13:40.822Z,1011.01
2017-09-27T23:14:21.268Z,1010.97
2017-09-27T23:15:01.744Z,1011.01
2017-09-27T23:15:42.250Z,1010.99
2017-09-27T23:16:22.735Z,1010.96
2017-09-27T23:17:03.210Z,1010.99
2017-09-27T23:17:43.668Z,1010.97
2017-09-27T23:18:24.146Z,1010.98
2017-09-27T23:19:04.537Z,1011.02
2017-09-27T23:19:45.014Z,1011.01
2017-09-27T23:20:25.444Z,1011.06
2017-09-27T23:21:05.902Z,1011.02